createdAt,value
2022-10-19T00:00:02.094Z,9.27
2022-10-19T00:15:01.733Z,9.02
2022-10-19T00:30:02.400Z,8.86
2022-10-19T00:45:02.049Z,8.64
2022-10-19T01:00:01.752Z,8.44
2022-10-19T01:15:02.457Z,8.23
2022-10-19T01:30:02.137Z,8.05
2022-10-19T01:45:01.819Z,7.92
2022-10-19T02:00:02.461Z,7.77
2022-10-19T02:15:02.181Z,7.65
2022-10-19T02:30:01.905Z,7.63
2022-10-19T02:45:02.570Z,7.69
2022-10-19T03:00:02.202Z,7.78
2022-10-19T03:15:01.840Z,7.86
2022-10-19T03:30:02.518Z,7.91
2022-10-19T03:45:02.253Z,7.99
2022-10-19T04:00:01.886Z,8.09
2022-10-19T04:15:02.525Z,8.17
2022-10-19T04:30:01.795Z,8.27
2022-10-19T04:45:02.420Z,8.37
2022-10-19T05:00:02.045Z,8.45
2022-10-19T05:15:01.754Z,8.54
2022-10-19T05:30:02.409Z,8.58
2022-10-19T05:45:02.014Z,8.63
2022-10-19T06:00:01.701Z,8.62
2022-10-19T06:15:02.368Z,8.64
2022-10-19T06:30:02.080Z,8.65
2022-10-19T06:45:01.789Z,8.72
2022-10-19T07:00:02.441Z,8.84
2022-10-19T07:15:02.085Z,8.99
2022-10-19T07:30:01.800Z,9.14
2022-10-19T07:45:02.447Z,9.32
2022-10-19T08:00:02.161Z,9.52
2022-10-19T08:15:01.785Z,9.76
2022-10-19T08:30:02.459Z,10.05
2022-10-19T08:45:02.090Z,10.41
2022-10-19T09:00:01.723Z,10.56
2022-10-19T09:15:02.367Z,10.9
2022-10-19T09:30:02.049Z,11.47
2022-10-19T09:45:01.696Z,11.66
2022-10-19T10:00:02.382Z,11.94
2022-10-19T10:15:02.103Z,12.08
2022-10-19T10:30:01.827Z,12.23
2022-10-19T10:45:02.505Z,12.36
2022-10-19T11:00:02.127Z,12.7
2022-10-19T11:15:01.773Z,12.94
2022-10-19T11:30:02.438Z,12.85
2022-10-19T11:45:02.082Z,13.07
2022-10-19T12:00:13.651Z,13.36
2022-10-19T12:15:02.212Z,13.74
2022-10-19T12:30:02.015Z,14.13
2022-10-19T12:45:01.713Z,13.84
2022-10-19T13:00:02.366Z,14.14
2022-10-19T13:15:01.986Z,14.39
2022-10-19T13:30:01.778Z,14.54
2022-10-19T13:45:02.410Z,14.86
2022-10-19T14:00:02.126Z,15.03
2022-10-19T14:15:01.826Z,15.15
2022-10-19T14:30:02.483Z,15.3
2022-10-19T14:45:02.193Z,15.2
2022-10-19T15:00:01.896Z,15.3
2022-10-19T15:15:02.541Z,15.25
2022-10-19T15:30:02.240Z,15.18
2022-10-19T15:45:01.933Z,14.73
2022-10-19T16:00:01.597Z,14.45
2022-10-19T16:15:02.276Z,14.05
2022-10-19T16:30:01.996Z,13.7
2022-10-19T16:45:01.654Z,13.27
2022-10-19T17:00:02.318Z,12.92
2022-10-19T17:15:29.948Z,12.53
2022-10-19T17:30:01.935Z,12.24
2022-10-19T17:45:01.620Z,11.94
2022-10-19T18:00:02.314Z,11.66
2022-10-19T18:15:02.027Z,11.41
2022-10-19T18:30:01.742Z,11.24
2022-10-19T18:45:02.378Z,11.08
2022-10-19T19:00:02.028Z,10.83
2022-10-19T19:15:01.699Z,10.62
2022-10-19T19:30:02.469Z,10.44
2022-10-19T19:45:02.120Z,10.28
2022-10-19T20:00:01.764Z,10.22
2022-10-19T20:15:02.414Z,9.96
2022-10-19T20:30:02.087Z,9.83
2022-10-19T20:45:01.746Z,9.62
2022-10-19T21:00:02.423Z,9.56
2022-10-19T21:15:02.119Z,9.31
2022-10-19T21:30:01.815Z,9.23
2022-10-19T21:45:18.246Z,9.11
2022-10-19T22:00:01.927Z,8.95
2022-10-19T22:15:01.617Z,8.84
2022-10-19T22:30:02.265Z,8.8
2022-10-19T22:45:01.967Z,8.67
2022-10-19T23:00:01.681Z,8.57
2022-10-19T23:15:02.287Z,8.58
2022-10-19T23:30:01.949Z,8.47
2022-10-19T23:45:01.594Z,8.28
